sensor_id;sensor_type;location;lat;lon;timestamp;temperature;humidity
39493;DHT22;25176;51.060;3.720;2022-11-27T00:01:31;8.50;99.90
39493;DHT22;25176;51.060;3.720;2022-11-27T00:03:57;8.40;99.90
39493;DHT22;25176;51.060;3.720;2022-11-27T00:06:24;8.40;99.90
39493;DHT22;25176;51.060;3.720;2022-11-27T00:08:50;8.40;99.90
39493;DHT22;25176;51.060;3.720;2022-11-27T00:11:19;8.40;99.90
39493;DHT22;25176;51.060;3.720;2022-11-27T00:13:45;8.40;99.90
39493;DHT22;25176;51.060;3.720;2022-11-27T00:16:11;8.40;99.90
39493;DHT22;25176;51.060;3.720;2022-11-27T00:18:37;8.50;99.90
39493;DHT22;25176;51.060;3.720;2022-11-27T00:21:12;8.50;99.90
39493;DHT22;25176;51.060;3.720;2022-11-27T00:23:38;8.70;99.90
39493;DHT22;25176;51.060;3.720;2022-11-27T00:26:04;8.70;99.90
39493;DHT22;25176;51.060;3.720;2022-11-27T00:28:29;8.70;99.90
39493;DHT22;25176;51.060;3.720;2022-11-27T00:30:59;8.80;99.90
39493;DHT22;25176;51.060;3.720;2022-11-27T00:33:25;8.70;99.90
39493;DHT22;25176;51.060;3.720;2022-11-27T00:35:50;8.80;99.90
39493;DHT22;25176;51.060;3.720;2022-11-27T00:38:16;8.80;99.90
39493;DHT22;25176;51.060;3.720;2022-11-27T00:40:41;8.70;99.90
39493;DHT22;25176;51.060;3.720;2022-11-27T00:43:07;8.80;99.90
39493;DHT22;25176;51.060;3.720;2022-11-27T00:45:32;8.90;99.90
39493;DHT22;25176;51.060;3.720;2022-11-27T00:47:58;8.80;99.90
39493;DHT22;25176;51.060;3.720;2022-11-27T00:50:23;8.70;99.90
39493;DHT22;25176;51.060;3.720;2022-11-27T00:52:49;8.60;99.90
39493;DHT22;25176;51.060;3.720;2022-11-27T00:55:14;8.60;99.90
39493;DHT22;25176;51.060;3.720;2022-11-27T00:57:40;8.60;99.90
39493;DHT22;25176;51.060;3.720;2022-11-27T01:00:06;8.60;99.90
39493;DHT22;25176;51.060;3.720;2022-11-27T01:02:31;8.70;99.90
39493;DHT22;25176;51.060;3.720;2022-11-27T01:04:57;8.70;99.90
39493;DHT22;25176;51.060;3.720;2022-11-27T01:07:22;8.80;99.90
39493;DHT22;25176;51.060;3.720;2022-11-27T01:09:48;8.90;99.90
39493;DHT22;25176;51.060;3.720;2022-11-27T01:12:13;8.90;99.90
39493;DHT22;25176;51.060;3.720;2022-11-27T01:14:39;9.00;99.90
39493;DHT22;25176;51.060;3.720;2022-11-27T01:17:04;8.90;99.90
39493;DHT22;25176;51.060;3.720;2022-11-27T01:19:29;8.90;99.90
39493;DHT22;25176;51.060;3.720;2022-11-27T01:21:55;8.90;99.90
39493;DHT22;25176;51.060;3.720;2022-11-27T01:24:20;8.90;99.90
39493;DHT22;25176;51.060;3.720;2022-11-27T01:26:46;8.90;99.90
39493;DHT22;25176;51.060;3.720;2022-11-27T01:29:11;9.00;99.90
39493;DHT22;25176;51.060;3.720;2022-11-27T01:31:37;8.90;99.90
39493;DHT22;25176;51.060;3.720;2022-11-27T01:34:04;8.80;99.90
39493;DHT22;25176;51.060;3.720;2022-11-27T01:36:30;8.80;99.90
39493;DHT22;25176;51.060;3.720;2022-11-27T01:38:56;8.70;99.90
39493;DHT22;25176;51.060;3.720;2022-11-27T01:41:27;8.70;99.90
39493;DHT22;25176;51.060;3.720;2022-11-27T01:46:24;8.80;99.90
39493;DHT22;25176;51.060;3.720;2022-11-27T01:48:51;8.90;99.90
39493;DHT22;25176;51.060;3.720;2022-11-27T01:51:17;8.90;99.90
39493;DHT22;25176;51.060;3.720;2022-11-27T01:53:43;8.80;99.90
39493;DHT22;25176;51.060;3.720;2022-11-27T01:56:09;8.70;99.90
39493;DHT22;25176;51.060;3.720;2022-11-27T01:58:35;8.70;99.90
39493;DHT22;25176;51.060;3.720;2022-11-27T02:01:00;8.70;99.90
39493;DHT22;25176;51.060;3.720;2022-11-27T02:03:26;8.60;99.90
39493;DHT22;25176;51.060;3.720;2022-11-27T02:05:51;8.70;99.90
39493;DHT22;25176;51.060;3.720;2022-11-27T02:08:17;8.70;99.90
39493;DHT22;25176;51.060;3.720;2022-11-27T02:10:53;8.70;99.90
39493;DHT22;25176;51.060;3.720;2022-11-27T02:13:37;8.80;99.90
39493;DHT22;25176;51.060;3.720;2022-11-27T02:16:11;8.80;99.90
39493;DHT22;25176;51.060;3.720;2022-11-27T02:19:24;8.90;99.90
39493;DHT22;25176;51.060;3.720;2022-11-27T02:21:38;8.80;99.90
39493;DHT22;25176;51.060;3.720;2022-11-27T02:24:11;8.90;99.90
39493;DHT22;25176;51.060;3.720;2022-11-27T02:29:25;9.10;99.90
39493;DHT22;25176;51.060;3.720;2022-11-27T02:36:59;9.20;99.90
39493;DHT22;25176;51.060;3.720;2022-11-27T02:39:27;9.20;99.90
39493;DHT22;25176;51.060;3.720;2022-11-27T02:41:57;9.20;99.90
39493;DHT22;25176;51.060;3.720;2022-11-27T02:44:23;9.20;99.90
39493;DHT22;25176;51.060;3.720;2022-11-27T02:46:50;9.20;99.90
39493;DHT22;25176;51.060;3.720;2022-11-27T02:49:17;9.10;99.90
39493;DHT22;25176;51.060;3.720;2022-11-27T02:51:45;9.10;99.90
39493;DHT22;25176;51.060;3.720;2022-11-27T02:54:14;9.10;99.90
39493;DHT22;25176;51.060;3.720;2022-11-27T02:56:43;9.10;99.90
39493;DHT22;25176;51.060;3.720;2022-11-27T02:59:12;9.20;99.90
39493;DHT22;25176;51.060;3.720;2022-11-27T03:01:43;9.20;99.90
39493;DHT22;25176;51.060;3.720;2022-11-27T03:04:10;9.30;99.90
39493;DHT22;25176;51.060;3.720;2022-11-27T03:06:48;9.30;99.90
39493;DHT22;25176;51.060;3.720;2022-11-27T03:09:25;9.30;99.90
39493;DHT22;25176;51.060;3.720;2022-11-27T03:11:51;9.30;99.90
39493;DHT22;25176;51.060;3.720;2022-11-27T03:14:17;9.40;99.90
39493;DHT22;25176;51.060;3.720;2022-11-27T03:19:27;9.30;99.90
39493;DHT22;25176;51.060;3.720;2022-11-27T03:21:55;9.30;99.90
39493;DHT22;25176;51.060;3.720;2022-11-27T03:24:20;9.40;99.90
39493;DHT22;25176;51.060;3.720;2022-11-27T03:26:46;9.30;99.90
39493;DHT22;25176;51.060;3.720;2022-11-27T03:29:13;9.20;99.90
39493;DHT22;25176;51.060;3.720;2022-11-27T03:31:39;9.30;99.90
39493;DHT22;25176;51.060;3.720;2022-11-27T03:34:05;9.30;99.90
39493;DHT22;25176;51.060;3.720;2022-11-27T03:36:31;9.30;99.90
39493;DHT22;25176;51.060;3.720;2022-11-27T03:38:56;9.20;99.90
39493;DHT22;25176;51.060;3.720;2022-11-27T03:44:03;9.00;99.90
39493;DHT22;25176;51.060;3.720;2022-11-27T03:57:49;9.10;99.90
39493;DHT22;25176;51.060;3.720;2022-11-27T03:59:49;9.10;99.90
39493;DHT22;25176;51.060;3.720;2022-11-27T04:02:26;9.10;99.90
39493;DHT22;25176;51.060;3.720;2022-11-27T04:04:51;9.10;99.90
39493;DHT22;25176;51.060;3.720;2022-11-27T04:07:17;9.20;99.90
39493;DHT22;25176;51.060;3.720;2022-11-27T04:09:42;9.20;99.90
39493;DHT22;25176;51.060;3.720;2022-11-27T04:12:08;9.20;99.90
39493;DHT22;25176;51.060;3.720;2022-11-27T04:14:33;9.10;99.90
39493;DHT22;25176;51.060;3.720;2022-11-27T04:16:59;9.00;99.90
39493;DHT22;25176;51.060;3.720;2022-11-27T04:19:24;8.90;99.90
39493;DHT22;25176;51.060;3.720;2022-11-27T04:21:49;8.90;99.90
39493;DHT22;25176;51.060;3.720;2022-11-27T04:24:15;8.80;99.90
39493;DHT22;25176;51.060;3.720;2022-11-27T04:26:40;8.90;99.90
39493;DHT22;25176;51.060;3.720;2022-11-27T04:29:06;9.00;99.90
39493;DHT22;25176;51.060;3.720;2022-11-27T04:31:31;8.90;99.90
39493;DHT22;25176;51.060;3.720;2022-11-27T04:33:57;8.90;99.90
39493;DHT22;25176;51.060;3.720;2022-11-27T04:36:22;8.90;99.90
39493;DHT22;25176;51.060;3.720;2022-11-27T04:38:48;8.80;99.90
39493;DHT22;25176;51.060;3.720;2022-11-27T04:41:13;8.90;99.90
39493;DHT22;25176;51.060;3.720;2022-11-27T04:43:38;9.00;99.90
39493;DHT22;25176;51.060;3.720;2022-11-27T04:46:04;9.00;99.90
39493;DHT22;25176;51.060;3.720;2022-11-27T04:48:29;9.00;99.90
39493;DHT22;25176;51.060;3.720;2022-11-27T04:50:55;8.90;99.90
39493;DHT22;25176;51.060;3.720;2022-11-27T04:53:20;9.00;99.90
39493;DHT22;25176;51.060;3.720;2022-11-27T04:55:46;9.00;99.90
39493;DHT22;25176;51.060;3.720;2022-11-27T04:58:11;9.10;99.90
39493;DHT22;25176;51.060;3.720;2022-11-27T05:00:37;9.00;99.90
39493;DHT22;25176;51.060;3.720;2022-11-27T05:03:02;9.00;99.90
39493;DHT22;25176;51.060;3.720;2022-11-27T05:05:28;9.00;99.90
39493;DHT22;25176;51.060;3.720;2022-11-27T05:07:53;9.00;99.90
39493;DHT22;25176;51.060;3.720;2022-11-27T05:10:18;9.00;99.90
39493;DHT22;25176;51.060;3.720;2022-11-27T05:12:44;9.00;99.90
39493;DHT22;25176;51.060;3.720;2022-11-27T05:15:10;9.00;99.90
39493;DHT22;25176;51.060;3.720;2022-11-27T05:17:35;9.10;99.90
39493;DHT22;25176;51.060;3.720;2022-11-27T05:20:00;9.00;99.90
39493;DHT22;25176;51.060;3.720;2022-11-27T05:22:26;9.10;99.90
39493;DHT22;25176;51.060;3.720;2022-11-27T05:24:51;9.20;99.90
39493;DHT22;25176;51.060;3.720;2022-11-27T05:27:17;9.10;99.90
39493;DHT22;25176;51.060;3.720;2022-11-27T05:29:42;9.00;99.90
39493;DHT22;25176;51.060;3.720;2022-11-27T05:32:08;9.00;99.90
39493;DHT22;25176;51.060;3.720;2022-11-27T05:34:33;9.10;99.90
39493;DHT22;25176;51.060;3.720;2022-11-27T05:36:59;9.00;99.90
39493;DHT22;25176;51.060;3.720;2022-11-27T05:39:24;9.10;99.90
39493;DHT22;25176;51.060;3.720;2022-11-27T05:41:50;9.20;99.90
39493;DHT22;25176;51.060;3.720;2022-11-27T05:44:15;9.10;99.90
39493;DHT22;25176;51.060;3.720;2022-11-27T05:46:41;9.20;99.90
39493;DHT22;25176;51.060;3.720;2022-11-27T05:49:09;9.30;99.90
39493;DHT22;25176;51.060;3.720;2022-11-27T05:51:34;9.20;99.90
39493;DHT22;25176;51.060;3.720;2022-11-27T05:54:00;9.20;99.90
39493;DHT22;25176;51.060;3.720;2022-11-27T05:56:25;9.20;99.90
39493;DHT22;25176;51.060;3.720;2022-11-27T05:58:51;9.10;99.90
39493;DHT22;25176;51.060;3.720;2022-11-27T06:01:17;9.10;99.90
39493;DHT22;25176;51.060;3.720;2022-11-27T06:03:43;9.10;99.90
39493;DHT22;25176;51.060;3.720;2022-11-27T06:06:09;9.10;99.90
39493;DHT22;25176;51.060;3.720;2022-11-27T06:08:36;9.20;99.90
39493;DHT22;25176;51.060;3.720;2022-11-27T06:11:05;9.30;99.90
39493;DHT22;25176;51.060;3.720;2022-11-27T06:13:31;9.30;99.90
39493;DHT22;25176;51.060;3.720;2022-11-27T06:15:57;9.30;99.90
39493;DHT22;25176;51.060;3.720;2022-11-27T06:18:22;9.20;99.90
39493;DHT22;25176;51.060;3.720;2022-11-27T06:20:47;9.20;99.90
39493;DHT22;25176;51.060;3.720;2022-11-27T06:23:13;9.20;99.90
39493;DHT22;25176;51.060;3.720;2022-11-27T06:25:38;9.20;99.90
39493;DHT22;25176;51.060;3.720;2022-11-27T06:28:04;9.00;99.90
39493;DHT22;25176;51.060;3.720;2022-11-27T06:30:29;9.00;99.90
39493;DHT22;25176;51.060;3.720;2022-11-27T06:32:55;8.90;99.90
39493;DHT22;25176;51.060;3.720;2022-11-27T06:35:20;8.90;99.90
39493;DHT22;25176;51.060;3.720;2022-11-27T06:37:47;8.90;99.90
39493;DHT22;25176;51.060;3.720;2022-11-27T06:40:12;8.90;99.90
39493;DHT22;25176;51.060;3.720;2022-11-27T06:42:38;8.90;99.90
39493;DHT22;25176;51.060;3.720;2022-11-27T06:45:03;8.80;99.90
39493;DHT22;25176;51.060;3.720;2022-11-27T06:47:29;8.70;99.90
39493;DHT22;25176;51.060;3.720;2022-11-27T06:49:54;8.80;99.90
39493;DHT22;25176;51.060;3.720;2022-11-27T06:52:20;8.90;99.90
39493;DHT22;25176;51.060;3.720;2022-11-27T06:54:45;8.90;99.90
39493;DHT22;25176;51.060;3.720;2022-11-27T06:57:12;8.90;99.90
39493;DHT22;25176;51.060;3.720;2022-11-27T06:59:37;9.00;99.90
39493;DHT22;25176;51.060;3.720;2022-11-27T07:02:03;9.10;99.90
39493;DHT22;25176;51.060;3.720;2022-11-27T07:04:28;9.00;99.90
39493;DHT22;25176;51.060;3.720;2022-11-27T07:06:53;9.00;99.90
39493;DHT22;25176;51.060;3.720;2022-11-27T07:09:19;8.90;99.90
39493;DHT22;25176;51.060;3.720;2022-11-27T07:11:44;9.00;99.90
39493;DHT22;25176;51.060;3.720;2022-11-27T07:14:10;8.90;99.90
39493;DHT22;25176;51.060;3.720;2022-11-27T07:16:35;8.80;99.90
39493;DHT22;25176;51.060;3.720;2022-11-27T07:19:02;8.90;99.90
39493;DHT22;25176;51.060;3.720;2022-11-27T07:21:28;8.60;99.90
39493;DHT22;25176;51.060;3.720;2022-11-27T07:23:54;8.60;99.90
39493;DHT22;25176;51.060;3.720;2022-11-27T07:26:21;8.70;99.90
39493;DHT22;25176;51.060;3.720;2022-11-27T07:28:47;8.70;99.90
39493;DHT22;25176;51.060;3.720;2022-11-27T07:31:14;8.80;99.90
39493;DHT22;25176;51.060;3.720;2022-11-27T07:33:39;8.90;99.90
39493;DHT22;25176;51.060;3.720;2022-11-27T07:36:15;8.80;99.90
39493;DHT22;25176;51.060;3.720;2022-11-27T07:38:40;8.90;99.90
39493;DHT22;25176;51.060;3.720;2022-11-27T07:41:07;8.80;99.90
39493;DHT22;25176;51.060;3.720;2022-11-27T07:43:32;8.90;99.90
39493;DHT22;25176;51.060;3.720;2022-11-27T07:46:01;8.90;99.90
39493;DHT22;25176;51.060;3.720;2022-11-27T07:48:27;9.00;99.90
39493;DHT22;25176;51.060;3.720;2022-11-27T07:50:52;8.90;99.90
39493;DHT22;25176;51.060;3.720;2022-11-27T07:53:17;8.90;99.90
39493;DHT22;25176;51.060;3.720;2022-11-27T07:55:43;8.70;99.90
39493;DHT22;25176;51.060;3.720;2022-11-27T07:58:08;8.80;99.90
39493;DHT22;25176;51.060;3.720;2022-11-27T08:00:34;8.70;99.90
39493;DHT22;25176;51.060;3.720;2022-11-27T08:03:00;8.80;99.90
39493;DHT22;25176;51.060;3.720;2022-11-27T08:05:26;8.80;99.90
39493;DHT22;25176;51.060;3.720;2022-11-27T08:07:51;8.90;99.90
39493;DHT22;25176;51.060;3.720;2022-11-27T08:10:17;9.00;99.90
39493;DHT22;25176;51.060;3.720;2022-11-27T08:12:42;9.00;99.90
39493;DHT22;25176;51.060;3.720;2022-11-27T08:15:08;8.70;99.90
39493;DHT22;25176;51.060;3.720;2022-11-27T08:17:34;8.60;99.90
39493;DHT22;25176;51.060;3.720;2022-11-27T08:19:59;8.70;99.90
39493;DHT22;25176;51.060;3.720;2022-11-27T08:22:25;8.60;99.90
39493;DHT22;25176;51.060;3.720;2022-11-27T08:24:50;8.60;99.90
39493;DHT22;25176;51.060;3.720;2022-11-27T08:27:16;8.70;99.90
39493;DHT22;25176;51.060;3.720;2022-11-27T08:29:41;8.60;99.90
39493;DHT22;25176;51.060;3.720;2022-11-27T08:32:07;8.70;99.90
39493;DHT22;25176;51.060;3.720;2022-11-27T08:34:32;8.70;99.90
39493;DHT22;25176;51.060;3.720;2022-11-27T08:36:57;8.80;99.90
39493;DHT22;25176;51.060;3.720;2022-11-27T08:39:23;8.90;99.90
39493;DHT22;25176;51.060;3.720;2022-11-27T08:41:51;8.80;99.90
39493;DHT22;25176;51.060;3.720;2022-11-27T08:44:16;8.90;99.90
39493;DHT22;25176;51.060;3.720;2022-11-27T08:46:42;8.90;99.90
39493;DHT22;25176;51.060;3.720;2022-11-27T08:49:07;9.00;99.90
39493;DHT22;25176;51.060;3.720;2022-11-27T08:51:33;8.90;99.90
39493;DHT22;25176;51.060;3.720;2022-11-27T08:53:58;8.90;99.90
39493;DHT22;25176;51.060;3.720;2022-11-27T08:56:24;9.00;99.90
39493;DHT22;25176;51.060;3.720;2022-11-27T08:58:50;9.10;99.90
39493;DHT22;25176;51.060;3.720;2022-11-27T09:01:17;9.10;99.90
39493;DHT22;25176;51.060;3.720;2022-11-27T09:03:43;9.10;99.90
39493;DHT22;25176;51.060;3.720;2022-11-27T09:06:09;9.20;99.90
39493;DHT22;25176;51.060;3.720;2022-11-27T09:08:35;9.10;99.90
39493;DHT22;25176;51.060;3.720;2022-11-27T09:11:01;9.00;99.90
39493;DHT22;25176;51.060;3.720;2022-11-27T09:13:29;8.90;99.90
39493;DHT22;25176;51.060;3.720;2022-11-27T09:15:55;9.00;99.90
39493;DHT22;25176;51.060;3.720;2022-11-27T09:18:20;9.10;99.90
39493;DHT22;25176;51.060;3.720;2022-11-27T09:20:53;9.10;99.90
39493;DHT22;25176;51.060;3.720;2022-11-27T09:23:18;9.20;99.90
39493;DHT22;25176;51.060;3.720;2022-11-27T09:25:44;9.20;99.90
39493;DHT22;25176;51.060;3.720;2022-11-27T09:28:09;9.20;99.90
39493;DHT22;25176;51.060;3.720;2022-11-27T09:30:36;9.10;99.90
39493;DHT22;25176;51.060;3.720;2022-11-27T09:33:01;9.30;99.90
39493;DHT22;25176;51.060;3.720;2022-11-27T09:35:26;9.20;99.90
39493;DHT22;25176;51.060;3.720;2022-11-27T09:37:52;9.20;99.90
39493;DHT22;25176;51.060;3.720;2022-11-27T09:40:17;9.20;99.90
39493;DHT22;25176;51.060;3.720;2022-11-27T09:42:51;9.30;99.90
39493;DHT22;25176;51.060;3.720;2022-11-27T09:45:18;9.10;99.90
39493;DHT22;25176;51.060;3.720;2022-11-27T09:47:48;9.20;99.90
39493;DHT22;25176;51.060;3.720;2022-11-27T09:57:37;9.10;99.90
39493;DHT22;25176;51.060;3.720;2022-11-27T10:00:04;8.90;99.90
39493;DHT22;25176;51.060;3.720;2022-11-27T10:02:30;9.00;99.90
39493;DHT22;25176;51.060;3.720;2022-11-27T10:04:56;9.00;99.90
39493;DHT22;25176;51.060;3.720;2022-11-27T10:07:27;9.10;99.90
39493;DHT22;25176;51.060;3.720;2022-11-27T10:10:01;9.20;99.90
39493;DHT22;25176;51.060;3.720;2022-11-27T10:12:31;9.30;99.90
39493;DHT22;25176;51.060;3.720;2022-11-27T10:15:12;9.30;99.90
39493;DHT22;25176;51.060;3.720;2022-11-27T10:17:53;9.10;99.90
39493;DHT22;25176;51.060;3.720;2022-11-27T10:20:36;9.30;99.90
39493;DHT22;25176;51.060;3.720;2022-11-27T10:25:50;9.10;99.90
39493;DHT22;25176;51.060;3.720;2022-11-27T10:31:12;9.20;99.90
39493;DHT22;25176;51.060;3.720;2022-11-27T10:33:46;9.30;99.90
39493;DHT22;25176;51.060;3.720;2022-11-27T10:36:14;9.30;99.90
39493;DHT22;25176;51.060;3.720;2022-11-27T10:38:41;9.30;99.90
39493;DHT22;25176;51.060;3.720;2022-11-27T10:41:10;9.30;99.90
39493;DHT22;25176;51.060;3.720;2022-11-27T10:43:37;9.30;99.90
39493;DHT22;25176;51.060;3.720;2022-11-27T10:46:04;9.30;99.90
39493;DHT22;25176;51.060;3.720;2022-11-27T10:48:32;9.50;99.90
39493;DHT22;25176;51.060;3.720;2022-11-27T10:50:58;9.40;99.90
39493;DHT22;25176;51.060;3.720;2022-11-27T10:53:26;9.50;99.90
39493;DHT22;25176;51.060;3.720;2022-11-27T11:01:02;9.30;99.90
39493;DHT22;25176;51.060;3.720;2022-11-27T11:03:28;9.50;99.90
39493;DHT22;25176;51.060;3.720;2022-11-27T11:05:58;9.40;99.90
39493;DHT22;25176;51.060;3.720;2022-11-27T11:08:24;9.50;99.90
39493;DHT22;25176;51.060;3.720;2022-11-27T11:10:51;9.40;99.90
39493;DHT22;25176;51.060;3.720;2022-11-27T11:13:21;9.50;99.90
39493;DHT22;25176;51.060;3.720;2022-11-27T11:15:51;9.70;99.90
39493;DHT22;25176;51.060;3.720;2022-11-27T11:18:59;9.80;99.90
39493;DHT22;25176;51.060;3.720;2022-11-27T11:21:05;9.90;99.90
39493;DHT22;25176;51.060;3.720;2022-11-27T11:26:02;9.80;99.90
39493;DHT22;25176;51.060;3.720;2022-11-27T11:28:28;9.80;99.90
39493;DHT22;25176;51.060;3.720;2022-11-27T11:30:59;9.90;99.90
39493;DHT22;25176;51.060;3.720;2022-11-27T11:33:26;9.90;99.90
39493;DHT22;25176;51.060;3.720;2022-11-27T11:35:52;9.90;99.90
39493;DHT22;25176;51.060;3.720;2022-11-27T11:38:20;9.90;99.90
39493;DHT22;25176;51.060;3.720;2022-11-27T11:40:59;9.70;99.90
39493;DHT22;25176;51.060;3.720;2022-11-27T11:43:35;9.70;99.90
39493;DHT22;25176;51.060;3.720;2022-11-27T11:46:15;9.80;99.90
39493;DHT22;25176;51.060;3.720;2022-11-27T11:48:50;9.80;99.90
39493;DHT22;25176;51.060;3.720;2022-11-27T11:51:18;9.80;99.90
39493;DHT22;25176;51.060;3.720;2022-11-27T11:53:51;9.80;99.90
39493;DHT22;25176;51.060;3.720;2022-11-27T11:56:34;9.80;99.90
39493;DHT22;25176;51.060;3.720;2022-11-27T11:59:14;9.50;99.90
39493;DHT22;25176;51.060;3.720;2022-11-27T12:04:32;9.50;99.90
39493;DHT22;25176;51.060;3.720;2022-11-27T12:14:47;9.60;99.90
39493;DHT22;25176;51.060;3.720;2022-11-27T12:17:30;9.70;99.90
39493;DHT22;25176;51.060;3.720;2022-11-27T12:20:09;9.60;99.90
39493;DHT22;25176;51.060;3.720;2022-11-27T12:22:52;9.70;99.90
39493;DHT22;25176;51.060;3.720;2022-11-27T12:28:06;9.70;99.90
39493;DHT22;25176;51.060;3.720;2022-11-27T12:30:44;9.70;99.90
39493;DHT22;25176;51.060;3.720;2022-11-27T12:33:22;9.80;99.90
39493;DHT22;25176;51.060;3.720;2022-11-27T12:43:41;9.80;99.90
39493;DHT22;25176;51.060;3.720;2022-11-27T12:48:47;9.80;99.90
39493;DHT22;25176;51.060;3.720;2022-11-27T12:51:33;9.90;99.90
39493;DHT22;25176;51.060;3.720;2022-11-27T12:54:14;10.00;99.90
39493;DHT22;25176;51.060;3.720;2022-11-27T12:59:17;10.00;99.90
39493;DHT22;25176;51.060;3.720;2022-11-27T13:01:50;10.20;99.90
39493;DHT22;25176;51.060;3.720;2022-11-27T13:04:23;10.20;99.90
39493;DHT22;25176;51.060;3.720;2022-11-27T13:06:54;10.00;99.90
39493;DHT22;25176;51.060;3.720;2022-11-27T13:09:25;10.00;99.90
39493;DHT22;25176;51.060;3.720;2022-11-27T13:11:51;10.00;99.90
39493;DHT22;25176;51.060;3.720;2022-11-27T13:14:18;10.10;99.90
39493;DHT22;25176;51.060;3.720;2022-11-27T13:16:51;10.00;99.90
39493;DHT22;25176;51.060;3.720;2022-11-27T13:19:21;9.90;99.90
39493;DHT22;25176;51.060;3.720;2022-11-27T13:21:48;9.90;99.90
39493;DHT22;25176;51.060;3.720;2022-11-27T13:24:15;9.90;99.90
39493;DHT22;25176;51.060;3.720;2022-11-27T13:26:45;9.70;99.90
39493;DHT22;25176;51.060;3.720;2022-11-27T13:29:17;9.80;99.90
39493;DHT22;25176;51.060;3.720;2022-11-27T13:31:43;9.80;99.90
39493;DHT22;25176;51.060;3.720;2022-11-27T13:34:15;9.80;99.90
39493;DHT22;25176;51.060;3.720;2022-11-27T13:36:42;9.90;99.90
39493;DHT22;25176;51.060;3.720;2022-11-27T13:39:28;9.90;99.90
39493;DHT22;25176;51.060;3.720;2022-11-27T13:44:26;10.00;99.90
39493;DHT22;25176;51.060;3.720;2022-11-27T13:46:53;10.00;99.90
39493;DHT22;25176;51.060;3.720;2022-11-27T13:49:23;10.00;99.90
39493;DHT22;25176;51.060;3.720;2022-11-27T13:51:49;9.90;99.90
39493;DHT22;25176;51.060;3.720;2022-11-27T13:54:15;10.00;99.90
39493;DHT22;25176;51.060;3.720;2022-11-27T13:56:42;9.90;99.90
39493;DHT22;25176;51.060;3.720;2022-11-27T13:59:26;10.00;99.90
39493;DHT22;25176;51.060;3.720;2022-11-27T14:01:58;10.00;99.90
39493;DHT22;25176;51.060;3.720;2022-11-27T14:04:24;10.00;99.90
39493;DHT22;25176;51.060;3.720;2022-11-27T14:06:55;9.90;99.90
39493;DHT22;25176;51.060;3.720;2022-11-27T14:09:30;9.90;99.90
39493;DHT22;25176;51.060;3.720;2022-11-27T14:11:56;10.00;99.90
39493;DHT22;25176;51.060;3.720;2022-11-27T14:14:22;10.00;99.90
39493;DHT22;25176;51.060;3.720;2022-11-27T14:16:59;10.10;99.90
39493;DHT22;25176;51.060;3.720;2022-11-27T14:19:30;10.10;99.90
39493;DHT22;25176;51.060;3.720;2022-11-27T14:21:57;10.10;99.90
39493;DHT22;25176;51.060;3.720;2022-11-27T14:24:24;10.20;99.90
39493;DHT22;25176;51.060;3.720;2022-11-27T14:26:51;10.20;99.90
39493;DHT22;25176;51.060;3.720;2022-11-27T14:29:18;10.20;99.90
39493;DHT22;25176;51.060;3.720;2022-11-27T14:31:44;10.00;99.90
39493;DHT22;25176;51.060;3.720;2022-11-27T14:36:54;9.90;99.90
39493;DHT22;25176;51.060;3.720;2022-11-27T14:39:20;9.90;99.90
39493;DHT22;25176;51.060;3.720;2022-11-27T14:41:54;9.90;99.90
39493;DHT22;25176;51.060;3.720;2022-11-27T14:44:20;9.80;99.90
39493;DHT22;25176;51.060;3.720;2022-11-27T14:46:45;9.90;99.90
39493;DHT22;25176;51.060;3.720;2022-11-27T14:49:20;9.90;99.90
39493;DHT22;25176;51.060;3.720;2022-11-27T14:51:46;10.00;99.90
39493;DHT22;25176;51.060;3.720;2022-11-27T14:54:22;9.90;99.90
39493;DHT22;25176;51.060;3.720;2022-11-27T14:56:52;9.90;99.90
39493;DHT22;25176;51.060;3.720;2022-11-27T14:59:19;9.90;99.90
39493;DHT22;25176;51.060;3.720;2022-11-27T15:01:45;10.00;99.90
39493;DHT22;25176;51.060;3.720;2022-11-27T15:04:25;9.80;99.90
39493;DHT22;25176;51.060;3.720;2022-11-27T15:06:50;10.00;99.90
39493;DHT22;25176;51.060;3.720;2022-11-27T15:09:17;10.10;99.90
39493;DHT22;25176;51.060;3.720;2022-11-27T15:11:43;10.10;99.90
39493;DHT22;25176;51.060;3.720;2022-11-27T15:14:11;10.10;99.90
39493;DHT22;25176;51.060;3.720;2022-11-27T15:16:37;10.10;99.90
39493;DHT22;25176;51.060;3.720;2022-11-27T15:19:11;10.10;99.90
39493;DHT22;25176;51.060;3.720;2022-11-27T15:21:40;10.20;99.90
39493;DHT22;25176;51.060;3.720;2022-11-27T15:24:19;10.30;99.90
39493;DHT22;25176;51.060;3.720;2022-11-27T15:26:51;10.10;99.90
39493;DHT22;25176;51.060;3.720;2022-11-27T15:29:32;10.00;99.90
39493;DHT22;25176;51.060;3.720;2022-11-27T15:32:00;10.00;99.90
39493;DHT22;25176;51.060;3.720;2022-11-27T15:34:26;10.00;99.90
39493;DHT22;25176;51.060;3.720;2022-11-27T15:36:57;10.00;99.90
39493;DHT22;25176;51.060;3.720;2022-11-27T15:39:26;10.00;99.90
39493;DHT22;25176;51.060;3.720;2022-11-27T15:41:56;9.90;99.90
39493;DHT22;25176;51.060;3.720;2022-11-27T15:44:22;10.10;99.90
39493;DHT22;25176;51.060;3.720;2022-11-27T15:46:48;10.20;99.90
39493;DHT22;25176;51.060;3.720;2022-11-27T15:49:14;10.00;99.90
39493;DHT22;25176;51.060;3.720;2022-11-27T15:51:40;9.90;99.90
39493;DHT22;25176;51.060;3.720;2022-11-27T15:54:06;9.70;99.90
39493;DHT22;25176;51.060;3.720;2022-11-27T15:56:31;9.80;99.90
39493;DHT22;25176;51.060;3.720;2022-11-27T15:58:57;9.70;99.90
39493;DHT22;25176;51.060;3.720;2022-11-27T16:01:22;9.70;99.90
39493;DHT22;25176;51.060;3.720;2022-11-27T16:03:48;9.70;99.90
39493;DHT22;25176;51.060;3.720;2022-11-27T16:06:13;9.70;99.90
39493;DHT22;25176;51.060;3.720;2022-11-27T16:08:39;9.70;99.90
39493;DHT22;25176;51.060;3.720;2022-11-27T16:11:05;9.70;99.90
39493;DHT22;25176;51.060;3.720;2022-11-27T16:13:32;9.80;99.90
39493;DHT22;25176;51.060;3.720;2022-11-27T16:16:04;9.90;99.90
39493;DHT22;25176;51.060;3.720;2022-11-27T16:18:30;9.80;99.90
39493;DHT22;25176;51.060;3.720;2022-11-27T16:21:07;9.80;99.90
39493;DHT22;25176;51.060;3.720;2022-11-27T16:23:33;9.80;99.90
39493;DHT22;25176;51.060;3.720;2022-11-27T16:25:58;9.90;99.90
39493;DHT22;25176;51.060;3.720;2022-11-27T16:28:24;10.00;99.90
39493;DHT22;25176;51.060;3.720;2022-11-27T16:30:57;10.00;99.90
39493;DHT22;25176;51.060;3.720;2022-11-27T16:33:29;10.00;99.90
39493;DHT22;25176;51.060;3.720;2022-11-27T16:35:54;10.00;99.90
39493;DHT22;25176;51.060;3.720;2022-11-27T16:38:20;10.00;99.90
39493;DHT22;25176;51.060;3.720;2022-11-27T16:40:49;10.10;99.90
39493;DHT22;25176;51.060;3.720;2022-11-27T16:43:14;10.10;99.90
39493;DHT22;25176;51.060;3.720;2022-11-27T16:45:40;10.10;99.90
39493;DHT22;25176;51.060;3.720;2022-11-27T16:48:05;10.20;99.90
39493;DHT22;25176;51.060;3.720;2022-11-27T16:50:31;10.10;99.90
39493;DHT22;25176;51.060;3.720;2022-11-27T16:52:57;10.00;99.90
39493;DHT22;25176;51.060;3.720;2022-11-27T16:55:22;10.00;99.90
39493;DHT22;25176;51.060;3.720;2022-11-27T16:57:48;10.00;99.90
39493;DHT22;25176;51.060;3.720;2022-11-27T17:00:14;10.10;99.90
39493;DHT22;25176;51.060;3.720;2022-11-27T17:02:40;10.00;99.90
39493;DHT22;25176;51.060;3.720;2022-11-27T17:05:05;10.10;99.90